createdAt,value
2018-05-09T00:00:15.396Z,6.63
2018-05-09T00:02:44.318Z,6.37
2018-05-09T00:05:13.258Z,6.60
2018-05-09T00:07:42.258Z,5.87
2018-05-09T00:10:11.178Z,6.63
2018-05-09T00:12:40.075Z,6.73
2018-05-09T00:15:08.998Z,7.23
2018-05-09T00:17:37.928Z,7.27
2018-05-09T00:20:06.826Z,6.83
2018-05-09T00:22:35.754Z,6.90
2018-05-09T00:25:04.710Z,7.00
2018-05-09T00:27:33.611Z,6.47
2018-05-09T00:30:02.503Z,6.97
2018-05-09T00:32:31.469Z,6.37
2018-05-09T00:35:00.461Z,6.53
2018-05-09T00:37:29.459Z,7.20
2018-05-09T00:39:58.417Z,6.83
2018-05-09T00:42:27.327Z,7.20
2018-05-09T00:44:56.217Z,6.97
2018-05-09T00:47:25.167Z,6.97
2018-05-09T00:49:54.043Z,6.60
2018-05-09T00:52:22.992Z,7.13
2018-05-09T00:54:51.985Z,7.40
2018-05-09T00:57:20.897Z,7.10
2018-05-09T00:59:49.784Z,7.60
2018-05-09T01:02:18.707Z,7.33
2018-05-09T01:04:47.643Z,8.07
2018-05-09T01:07:16.533Z,7.70
2018-05-09T01:09:45.467Z,6.67
2018-05-09T01:12:14.343Z,6.93
2018-05-09T01:14:43.321Z,6.97
2018-05-09T01:17:12.239Z,7.17
2018-05-09T01:19:41.191Z,7.50
2018-05-09T01:22:10.095Z,7.30
2018-05-09T01:24:39.089Z,7.77
2018-05-09T01:27:08.010Z,7.27
2018-05-09T01:29:36.915Z,7.53
2018-05-09T01:32:05.854Z,7.67
2018-05-09T01:34:34.768Z,7.23
2018-05-09T01:37:03.664Z,7.13
2018-05-09T01:39:32.627Z,7.37
2018-05-09T01:42:01.511Z,7.27
2018-05-09T01:44:30.506Z,7.40
2018-05-09T01:46:59.440Z,8.07
2018-05-09T01:49:28.328Z,7.80
2018-05-09T01:51:57.223Z,8.07
2018-05-09T01:54:26.223Z,7.70
2018-05-09T01:56:55.126Z,7.03
2018-05-09T01:59:24.015Z,6.60
2018-05-09T02:01:52.959Z,6.60
2018-05-09T02:04:21.949Z,8.30
2018-05-09T02:06:50.825Z,7.93
2018-05-09T02:09:19.771Z,7.77
2018-05-09T02:11:48.708Z,7.17
2018-05-09T02:14:17.636Z,8.47
2018-05-09T02:16:46.569Z,9.00
2018-05-09T02:19:15.480Z,9.13
2018-05-09T02:21:44.499Z,7.77
2018-05-09T02:24:13.499Z,8.07
2018-05-09T02:26:42.423Z,7.87
2018-05-09T02:29:11.324Z,9.10
2018-05-09T02:31:40.269Z,9.07
2018-05-09T02:34:09.179Z,10.77
2018-05-09T02:36:38.069Z,10.50
2018-05-09T02:39:07.010Z,10.03
2018-05-09T02:41:35.901Z,9.93
2018-05-09T02:44:04.796Z,9.70
2018-05-09T02:46:33.740Z,9.97
2018-05-09T02:49:02.698Z,9.60
2018-05-09T02:51:31.672Z,9.93
2018-05-09T02:54:00.670Z,8.63
2018-05-09T02:56:29.550Z,9.77
2018-05-09T02:59:01.619Z,8.63
2018-05-09T03:01:30.548Z,9.53
2018-05-09T03:03:59.499Z,10.00
2018-05-09T03:06:28.428Z,9.57
2018-05-09T03:08:57.381Z,8.70
2018-05-09T03:11:26.277Z,9.70
2018-05-09T03:13:55.360Z,9.27
2018-05-09T03:16:24.329Z,9.67
2018-05-09T03:18:53.233Z,10.50
2018-05-09T03:21:22.106Z,9.60
2018-05-09T03:23:51.047Z,9.53
2018-05-09T03:26:20.045Z,9.23
2018-05-09T03:28:48.924Z,11.17
2018-05-09T03:31:17.881Z,10.17
2018-05-09T03:33:46.776Z,8.87
2018-05-09T03:36:15.696Z,9.80
2018-05-09T03:38:44.624Z,9.27
2018-05-09T03:41:13.530Z,8.80
2018-05-09T03:43:42.415Z,9.23
2018-05-09T03:46:11.369Z,9.03
2018-05-09T03:48:40.442Z,9.60
2018-05-09T03:51:09.447Z,9.70
2018-05-09T03:53:38.426Z,8.43
2018-05-09T03:56:07.327Z,8.73
2018-05-09T03:58:36.265Z,9.17
2018-05-09T04:01:05.310Z,9.70
2018-05-09T04:03:34.429Z,10.23
2018-05-09T04:06:03.380Z,10.03
2018-05-09T04:08:32.434Z,9.80
2018-05-09T04:11:01.381Z,9.93
2018-05-09T04:13:30.287Z,9.70
2018-05-09T04:15:59.249Z,9.10
2018-05-09T04:18:28.174Z,9.37
2018-05-09T04:20:57.132Z,8.90
2018-05-09T04:23:26.088Z,8.70
2018-05-09T04:25:55.038Z,8.87
2018-05-09T04:28:23.949Z,9.40
2018-05-09T04:30:52.920Z,9.57
2018-05-09T04:33:21.873Z,9.57
2018-05-09T04:35:50.784Z,9.27
2018-05-09T04:38:19.738Z,8.23
2018-05-09T04:40:48.657Z,8.63
2018-05-09T04:43:17.571Z,9.07
2018-05-09T04:45:46.695Z,7.70
2018-05-09T04:48:15.680Z,9.30
2018-05-09T04:50:44.914Z,8.93
2018-05-09T04:53:13.953Z,8.63
2018-05-09T04:55:43.025Z,7.30
2018-05-09T04:58:11.879Z,9.40
2018-05-09T05:00:40.985Z,9.03
2018-05-09T05:03:09.911Z,9.30
2018-05-09T05:05:38.816Z,8.80
2018-05-09T05:08:08.147Z,9.07
2018-05-09T05:10:37.076Z,9.73
2018-05-09T05:13:06.008Z,9.23
2018-05-09T05:15:35.088Z,8.80
2018-05-09T05:18:04.110Z,8.70
2018-05-09T05:20:33.051Z,9.10
2018-05-09T05:23:02.352Z,8.77
2018-05-09T05:25:31.331Z,8.43
2018-05-09T05:28:00.371Z,8.20
2018-05-09T05:30:29.443Z,8.60
2018-05-09T05:32:58.553Z,8.30
2018-05-09T05:35:27.516Z,9.00
2018-05-09T05:37:56.970Z,8.57
2018-05-09T05:40:25.946Z,9.00
2018-05-09T05:42:54.900Z,8.80
2018-05-09T05:45:23.899Z,7.80
2018-05-09T05:47:52.916Z,7.63
2018-05-09T05:50:21.890Z,8.33
2018-05-09T05:52:50.835Z,8.93
2018-05-09T05:55:19.766Z,8.10
2018-05-09T05:57:48.663Z,7.23
2018-05-09T06:00:18.568Z,7.50
2018-05-09T06:02:47.515Z,8.37
2018-05-09T06:05:16.449Z,7.00
2018-05-09T06:07:45.386Z,8.23
2018-05-09T06:10:14.276Z,7.33
2018-05-09T06:12:43.925Z,7.83
2018-05-09T06:15:13.561Z,6.83
2018-05-09T06:17:42.885Z,7.90
2018-05-09T06:20:12.098Z,6.67
2018-05-09T06:22:41.958Z,7.23
2018-05-09T06:25:10.877Z,7.60
2018-05-09T06:27:39.797Z,7.07
2018-05-09T06:30:08.787Z,6.67
2018-05-09T06:32:38.003Z,8.30
2018-05-09T06:35:06.973Z,6.43
2018-05-09T06:37:37.229Z,7.03
2018-05-09T06:40:06.125Z,7.60
2018-05-09T06:42:34.999Z,6.87
2018-05-09T06:45:03.916Z,7.20
2018-05-09T06:47:32.807Z,6.93
2018-05-09T06:50:01.718Z,6.70
2018-05-09T06:52:30.665Z,10.60
2018-05-09T06:54:59.525Z,7.30
2018-05-09T06:57:28.431Z,7.63
2018-05-09T06:59:57.451Z,7.17
2018-05-09T07:02:26.338Z,6.83
2018-05-09T07:04:55.218Z,7.30
2018-05-09T07:07:24.172Z,7.57
2018-05-09T07:09:53.073Z,7.57
2018-05-09T07:12:21.983Z,7.53
2018-05-09T07:14:50.937Z,7.43
2018-05-09T07:17:19.848Z,7.37
2018-05-09T07:19:48.757Z,7.10
2018-05-09T07:22:17.730Z,8.00
2018-05-09T07:24:46.681Z,7.77
2018-05-09T07:27:15.606Z,7.60
2018-05-09T07:29:44.570Z,9.47
2018-05-09T07:32:13.475Z,8.07
2018-05-09T07:34:42.440Z,6.57
2018-05-09T07:37:11.368Z,7.13
2018-05-09T07:39:40.248Z,7.27
2018-05-09T07:42:09.298Z,6.93
2018-05-09T07:44:38.172Z,6.30
2018-05-09T07:47:07.098Z,6.23
2018-05-09T07:49:36.002Z,5.90
2018-05-09T07:52:04.947Z,6.43
2018-05-09T07:54:33.847Z,7.30
2018-05-09T07:57:02.739Z,7.10
2018-05-09T07:59:31.660Z,7.40
2018-05-09T08:02:00.600Z,6.37
2018-05-09T08:04:29.529Z,6.33
2018-05-09T08:06:58.632Z,5.87
2018-05-09T08:09:27.633Z,6.77
2018-05-09T08:11:56.537Z,6.20
2018-05-09T08:14:25.523Z,6.00
2018-05-09T08:16:54.499Z,7.30
2018-05-09T08:19:23.404Z,7.30
2018-05-09T08:21:52.344Z,7.27
2018-05-09T08:24:21.254Z,6.70
2018-05-09T08:26:50.149Z,6.10
2018-05-09T08:29:19.092Z,6.70
2018-05-09T08:31:47.990Z,5.70
2018-05-09T08:34:16.900Z,6.13
2018-05-09T08:36:45.902Z,6.73
2018-05-09T08:39:14.781Z,5.67
2018-05-09T08:41:43.695Z,6.17
2018-05-09T08:44:12.646Z,6.57
2018-05-09T08:46:41.532Z,5.97
2018-05-09T08:49:10.421Z,6.27
2018-05-09T08:51:39.396Z,5.43
2018-05-09T08:54:08.287Z,5.67
2018-05-09T08:56:37.239Z,6.40
2018-05-09T08:59:06.161Z,6.03
2018-05-09T09:01:35.038Z,5.77
2018-05-09T09:04:03.919Z,6.27
2018-05-09T09:06:32.967Z,4.97
2018-05-09T09:09:01.780Z,5.60
2018-05-09T09:11:30.687Z,5.57
2018-05-09T09:13:59.609Z,5.63
2018-05-09T09:16:28.488Z,5.47
2018-05-09T09:18:57.402Z,5.50
2018-05-09T09:21:26.344Z,6.53
2018-05-09T09:23:55.343Z,5.53
2018-05-09T09:26:24.235Z,5.37
2018-05-09T09:28:53.175Z,6.07
2018-05-09T09:31:22.070Z,5.93
2018-05-09T09:33:50.945Z,5.17
2018-05-09T09:36:19.908Z,5.03
2018-05-09T09:38:48.798Z,5.20
2018-05-09T09:41:17.695Z,4.20
2018-05-09T09:43:46.658Z,4.30
2018-05-09T09:46:15.529Z,4.43
2018-05-09T09:48:44.416Z,4.37
2018-05-09T09:51:13.436Z,4.60
2018-05-09T09:53:42.336Z,4.10
2018-05-09T09:56:11.213Z,4.27
2018-05-09T09:58:40.167Z,4.73
2018-05-09T10:01:09.098Z,4.70
2018-05-09T10:03:37.988Z,4.73
2018-05-09T10:06:06.911Z,4.53
2018-05-09T10:08:35.826Z,4.63
2018-05-09T10:11:04.744Z,4.23
2018-05-09T10:13:33.676Z,4.63
2018-05-09T10:16:02.589Z,4.43
2018-05-09T10:18:31.493Z,4.87
2018-05-09T10:21:00.429Z,4.40
2018-05-09T10:23:29.311Z,5.27
2018-05-09T10:25:58.196Z,4.77
2018-05-09T10:28:27.218Z,5.20
2018-05-09T10:30:56.144Z,4.90
2018-05-09T10:33:25.028Z,4.53
2018-05-09T10:35:53.993Z,4.47
2018-05-09T10:38:22.873Z,5.60
2018-05-09T10:40:51.818Z,4.70
2018-05-09T10:43:20.747Z,5.20
2018-05-09T10:45:49.637Z,3.67
2018-05-09T10:48:18.619Z,4.07
2018-05-09T10:50:47.641Z,5.27
2018-05-09T10:53:16.471Z,4.80
2018-05-09T10:55:45.373Z,4.30
2018-05-09T10:58:14.307Z,4.20
2018-05-09T11:00:43.247Z,3.60
2018-05-09T11:03:12.130Z,3.83
2018-05-09T11:05:41.060Z,4.10
2018-05-09T11:08:09.936Z,4.50
2018-05-09T11:10:38.901Z,4.13
2018-05-09T11:13:07.840Z,4.13
2018-05-09T11:15:36.744Z,4.40
2018-05-09T11:18:05.675Z,3.87
2018-05-09T11:20:34.622Z,3.50
2018-05-09T11:23:03.560Z,4.20
2018-05-09T11:25:32.471Z,3.80
2018-05-09T11:28:01.480Z,3.83
2018-05-09T11:30:30.369Z,4.17
2018-05-09T11:32:59.263Z,4.00
2018-05-09T11:35:28.172Z,4.10
2018-05-09T11:37:57.052Z,4.07
2018-05-09T11:40:25.925Z,3.80
2018-05-09T11:42:54.880Z,3.93
2018-05-09T11:45:23.831Z,3.93
2018-05-09T11:47:52.742Z,4.40
2018-05-09T11:50:21.697Z,3.80
2018-05-09T11:52:50.622Z,4.20
2018-05-09T11:55:19.558Z,4.60
2018-05-09T11:57:48.525Z,4.33
2018-05-09T12:00:17.465Z,3.93
2018-05-09T12:02:46.359Z,3.77
2018-05-09T12:05:15.280Z,3.87
2018-05-09T12:07:44.158Z,4.23
2018-05-09T12:10:13.047Z,3.73
2018-05-09T12:12:42.024Z,4.20
2018-05-09T12:15:10.920Z,3.80
2018-05-09T12:17:39.809Z,4.73
2018-05-09T12:20:08.730Z,4.70
2018-05-09T12:22:37.692Z,4.43
2018-05-09T12:25:06.701Z,4.23
2018-05-09T12:27:35.650Z,4.40
2018-05-09T12:30:04.540Z,3.93
2018-05-09T12:32:33.440Z,4.13
2018-05-09T12:35:02.351Z,3.93
2018-05-09T12:37:31.251Z,4.50
2018-05-09T12:40:00.154Z,4.27
2018-05-09T12:42:29.139Z,4.30
2018-05-09T12:44:57.997Z,4.50
2018-05-09T12:47:26.859Z,4.40
2018-05-09T12:49:55.814Z,4.93
2018-05-09T12:52:24.698Z,4.30
2018-05-09T12:54:53.674Z,4.73
2018-05-09T12:57:22.672Z,4.10
2018-05-09T12:59:51.539Z,4.33
2018-05-09T13:02:20.430Z,4.13
2018-05-09T13:04:49.356Z,4.20
2018-05-09T13:07:18.280Z,4.83
2018-05-09T13:09:47.149Z,4.07
2018-05-09T13:12:16.083Z,4.33
2018-05-09T13:14:44.960Z,4.80
2018-05-09T13:17:13.883Z,4.03
2018-05-09T13:19:42.824Z,4.17
2018-05-09T13:22:11.734Z,4.93
2018-05-09T13:24:40.619Z,4.73
2018-05-09T13:27:09.590Z,5.03
2018-05-09T13:29:38.480Z,3.60
2018-05-09T13:32:07.373Z,4.77
2018-05-09T13:34:36.298Z,4.33
2018-05-09T13:37:05.169Z,3.17
2018-05-09T13:39:34.090Z,3.80
2018-05-09T13:42:03.010Z,3.60
2018-05-09T13:44:31.894Z,3.87
2018-05-09T13:47:00.810Z,2.73
2018-05-09T13:49:29.723Z,3.60
2018-05-09T13:51:58.619Z,3.70
2018-05-09T13:54:27.518Z,3.57
2018-05-09T13:56:56.464Z,3.10
2018-05-09T13:59:25.431Z,3.67
2018-05-09T14:01:54.426Z,4.07
2018-05-09T14:04:23.375Z,2.87
2018-05-09T14:06:52.416Z,3.07
2018-05-09T14:09:21.332Z,3.43
2018-05-09T14:11:50.297Z,2.60
2018-05-09T14:14:19.211Z,3.00
2018-05-09T14:16:48.117Z,3.30
2018-05-09T14:19:17.139Z,3.60
2018-05-09T14:21:46.055Z,3.10
2018-05-09T14:24:15.044Z,3.13
2018-05-09T14:26:43.990Z,4.20
2018-05-09T14:29:13.038Z,2.93
2018-05-09T14:31:41.957Z,3.10
2018-05-09T14:34:10.909Z,4.13
2018-05-09T14:36:39.844Z,3.83
2018-05-09T14:39:08.747Z,3.80
2018-05-09T14:41:37.717Z,3.10
2018-05-09T14:44:06.611Z,3.50
2018-05-09T14:46:35.571Z,3.77
2018-05-09T14:49:04.676Z,3.23
2018-05-09T14:51:33.592Z,3.77
2018-05-09T14:54:02.512Z,3.73
2018-05-09T14:56:31.550Z,3.60
2018-05-09T14:59:00.555Z,2.77
2018-05-09T15:01:29.522Z,3.20
2018-05-09T15:03:58.503Z,3.37
2018-05-09T15:06:27.417Z,4.17
2018-05-09T15:08:56.343Z,3.87
2018-05-09T15:11:25.268Z,4.87
2018-05-09T15:13:54.171Z,4.77
2018-05-09T15:16:23.061Z,4.37
2018-05-09T15:18:51.983Z,3.33
2018-05-09T15:21:20.893Z,4.00
2018-05-09T15:23:49.782Z,5.17
2018-05-09T15:26:18.751Z,5.83
2018-05-09T15:28:47.645Z,4.60
2018-05-09T15:31:16.600Z,4.10
2018-05-09T15:33:45.620Z,4.17
2018-05-09T15:36:14.538Z,3.20
2018-05-09T15:38:43.498Z,3.67
2018-05-09T15:41:12.389Z,3.40
2018-05-09T15:43:41.299Z,2.97
2018-05-09T15:46:10.194Z,3.07
2018-05-09T15:48:39.261Z,2.90
2018-05-09T15:51:08.266Z,3.40
2018-05-09T15:53:37.173Z,3.13
2018-05-09T15:56:06.148Z,3.67
2018-05-09T15:58:35.126Z,3.97
2018-05-09T16:01:04.021Z,3.80
2018-05-09T16:03:32.967Z,4.43
2018-05-09T16:06:01.883Z,4.90
2018-05-09T16:08:30.898Z,4.20
2018-05-09T16:10:59.815Z,3.73
2018-05-09T16:13:28.779Z,4.20
2018-05-09T16:15:57.697Z,4.03
2018-05-09T16:18:26.804Z,4.90
2018-05-09T16:20:55.716Z,4.83
2018-05-09T16:23:24.626Z,4.97
2018-05-09T16:25:53.620Z,5.17
2018-05-09T16:28:22.632Z,5.00
2018-05-09T16:30:51.512Z,5.10
2018-05-09T16:33:20.505Z,5.00
2018-05-09T16:35:49.428Z,5.67
2018-05-09T16:38:18.377Z,5.50
2018-05-09T16:40:47.399Z,4.87
2018-05-09T16:43:16.341Z,4.90
2018-05-09T16:45:45.258Z,5.07
2018-05-09T16:48:14.248Z,5.37
2018-05-09T16:50:43.162Z,4.70
2018-05-09T16:53:12.077Z,5.70
2018-05-09T16:55:41.034Z,5.43
2018-05-09T16:58:10.030Z,5.27
2018-05-09T17:00:39.010Z,5.37
2018-05-09T17:03:07.995Z,5.50
2018-05-09T17:05:37.023Z,5.33
2018-05-09T17:08:05.961Z,5.23
2018-05-09T17:10:35.003Z,6.33
2018-05-09T17:13:03.998Z,9.20
2018-05-09T17:15:32.861Z,7.03
2018-05-09T17:18:01.957Z,6.50
2018-05-09T17:20:30.863Z,6.23
2018-05-09T17:22:59.848Z,6.10
2018-05-09T17:25:28.839Z,6.43
2018-05-09T17:27:57.744Z,5.50
2018-05-09T17:30:26.641Z,5.50
2018-05-09T17:32:55.595Z,6.00
2018-05-09T17:35:24.508Z,6.23
2018-05-09T17:37:53.413Z,5.67
2018-05-09T17:40:22.364Z,5.30
2018-05-09T17:42:51.303Z,5.70
2018-05-09T17:45:20.274Z,4.97
2018-05-09T17:47:49.224Z,5.23
2018-05-09T17:50:18.152Z,5.07
2018-05-09T17:52:47.058Z,5.50
2018-05-09T17:55:16.024Z,5.90
2018-05-09T17:57:44.951Z,4.73
2018-05-09T18:00:13.911Z,4.73
2018-05-09T18:02:42.938Z,5.30
2018-05-09T18:05:11.853Z,5.97
2018-05-09T18:07:40.808Z,6.93
2018-05-09T18:10:09.813Z,6.40
2018-05-09T18:12:38.868Z,6.00
2018-05-09T18:15:07.687Z,6.27
2018-05-09T18:17:36.686Z,6.23
2018-05-09T18:20:05.596Z,6.30
2018-05-09T18:22:34.518Z,5.67
2018-05-09T18:25:03.515Z,5.57
2018-05-09T18:27:32.443Z,6.33
2018-05-09T18:30:01.428Z,6.20
2018-05-09T18:32:30.414Z,6.40
2018-05-09T18:34:59.323Z,7.20
2018-05-09T18:37:28.271Z,6.50
2018-05-09T18:39:57.298Z,5.90
2018-05-09T18:42:26.197Z,6.20
2018-05-09T18:44:55.099Z,5.97
2018-05-09T18:47:24.055Z,5.97
2018-05-09T18:49:53.030Z,6.63
2018-05-09T18:52:21.925Z,5.00
2018-05-09T18:54:50.868Z,4.97
2018-05-09T18:57:19.803Z,3.80
2018-05-09T18:59:48.800Z,3.93
2018-05-09T19:02:17.818Z,5.33
2018-05-09T19:04:46.741Z,5.90
2018-05-09T19:07:15.630Z,5.43
2018-05-09T19:09:44.632Z,6.50
2018-05-09T19:12:13.543Z,5.37
2018-05-09T19:14:42.452Z,5.07
2018-05-09T19:17:11.398Z,5.03
2018-05-09T19:19:40.336Z,6.13
2018-05-09T19:22:09.235Z,5.30
2018-05-09T19:24:38.221Z,4.27
2018-05-09T19:27:07.126Z,3.50
2018-05-09T19:29:36.077Z,3.70
2018-05-09T19:32:05.020Z,4.50
2018-05-09T19:34:33.920Z,4.63
2018-05-09T19:37:02.827Z,4.27
2018-05-09T19:39:31.781Z,4.57
2018-05-09T19:42:00.695Z,5.13
2018-05-09T19:44:29.602Z,4.77
2018-05-09T19:46:58.531Z,4.10
2018-05-09T19:49:27.523Z,4.30
2018-05-09T19:51:56.434Z,4.73
2018-05-09T19:54:25.539Z,4.27
2018-05-09T19:56:54.516Z,4.87
2018-05-09T19:59:23.509Z,4.93
2018-05-09T20:01:52.459Z,5.43
2018-05-09T20:04:21.479Z,5.10
2018-05-09T20:06:50.381Z,5.90
2018-05-09T20:09:19.375Z,5.80
2018-05-09T20:11:48.277Z,6.50
2018-05-09T20:14:17.198Z,5.63
2018-05-09T20:16:47.062Z,6.47
2018-05-09T20:19:16.078Z,5.63
2018-05-09T20:21:44.962Z,6.43
2018-05-09T20:24:14.039Z,6.40
2018-05-09T20:26:43.037Z,6.10
2018-05-09T20:29:11.957Z,5.90
2018-05-09T20:31:40.954Z,6.20
2018-05-09T20:34:09.899Z,7.30
2018-05-09T20:36:38.788Z,6.73
2018-05-09T20:39:07.777Z,7.30
2018-05-09T20:41:36.677Z,7.17
2018-05-09T20:44:05.579Z,7.07
2018-05-09T20:46:34.585Z,7.17
2018-05-09T20:49:03.576Z,6.83
2018-05-09T20:51:32.457Z,6.77
2018-05-09T20:54:01.372Z,6.87
2018-05-09T20:56:30.269Z,7.07
2018-05-09T20:58:59.237Z,7.60
2018-05-09T21:01:28.208Z,7.10
2018-05-09T21:03:57.141Z,8.73
2018-05-09T21:06:26.079Z,7.67
2018-05-09T21:08:55.017Z,7.40
2018-05-09T21:11:23.930Z,7.30
2018-05-09T21:13:52.854Z,6.93
2018-05-09T21:16:21.790Z,7.30
2018-05-09T21:18:50.728Z,7.07
2018-05-09T21:21:19.645Z,6.43
2018-05-09T21:23:48.585Z,6.20
2018-05-09T21:26:17.454Z,7.10
2018-05-09T21:28:46.423Z,7.10
2018-05-09T21:31:15.407Z,6.60
2018-05-09T21:33:44.390Z,6.17
2018-05-09T21:36:13.290Z,5.70
2018-05-09T21:38:42.208Z,6.20
2018-05-09T21:41:11.166Z,6.20
2018-05-09T21:43:40.062Z,5.40
2018-05-09T21:46:08.991Z,5.90
2018-05-09T21:48:37.929Z,5.73
2018-05-09T21:51:06.939Z,5.97
2018-05-09T21:53:35.913Z,5.90
2018-05-09T21:56:05.249Z,6.70
2018-05-09T21:58:34.118Z,6.00
2018-05-09T22:01:03.094Z,6.90
2018-05-09T22:03:31.998Z,7.30
2018-05-09T22:06:00.884Z,7.30
2018-05-09T22:08:29.812Z,7.37
2018-05-09T22:10:58.718Z,7.70
2018-05-09T22:13:27.617Z,7.47
2018-05-09T22:15:56.567Z,6.80
2018-05-09T22:18:25.538Z,7.33
2018-05-09T22:20:54.551Z,7.37
2018-05-09T22:23:23.504Z,5.87
2018-05-09T22:25:52.379Z,7.20
2018-05-09T22:28:21.293Z,6.37
2018-05-09T22:30:50.214Z,6.87
2018-05-09T22:33:19.098Z,7.13
2018-05-09T22:35:47.976Z,7.10
2018-05-09T22:38:16.987Z,7.00
2018-05-09T22:40:46.266Z,7.73
2018-05-09T22:43:15.161Z,7.50
2018-05-09T22:45:44.053Z,6.60
2018-05-09T22:48:13.042Z,8.30
2018-05-09T22:50:41.973Z,7.47
2018-05-09T22:53:10.900Z,8.13
2018-05-09T22:55:39.813Z,7.50
2018-05-09T22:58:08.712Z,7.10
2018-05-09T23:00:37.628Z,7.80
2018-05-09T23:03:06.568Z,7.27
2018-05-09T23:05:35.467Z,7.67
2018-05-09T23:08:04.389Z,7.00
2018-05-09T23:10:33.469Z,6.83
2018-05-09T23:13:02.371Z,7.40
2018-05-09T23:15:31.278Z,7.27
2018-05-09T23:18:00.253Z,7.20
2018-05-09T23:20:29.231Z,7.27
2018-05-09T23:22:58.142Z,8.20
2018-05-09T23:25:27.075Z,8.23
2018-05-09T23:27:55.981Z,7.97
2018-05-09T23:30:24.898Z,6.30
2018-05-09T23:32:53.872Z,6.70
2018-05-09T23:35:22.776Z,7.40
2018-05-09T23:37:51.763Z,7.90
2018-05-09T23:40:20.748Z,7.27
2018-05-09T23:42:49.648Z,7.37
2018-05-09T23:45:18.558Z,7.60
2018-05-09T23:47:47.516Z,8.07
2018-05-09T23:50:16.541Z,7.60
2018-05-09T23:52:45.438Z,7.13
2018-05-09T23:55:14.401Z,8.10
2018-05-09T23:57:43.403Z,8.33
